createdAt,value
2022-09-26T00:01:15.100Z,21.14
2022-09-26T00:03:46.616Z,21.12
2022-09-26T00:06:13.525Z,21.13
2022-09-26T00:08:40.336Z,21.14
2022-09-26T00:11:09.345Z,21.13
2022-09-26T00:13:38.323Z,21.12
2022-09-26T00:16:05.994Z,21.12
2022-09-26T00:18:33.018Z,21.12
2022-09-26T00:21:13.916Z,21.13
2022-09-26T00:23:41.908Z,21.14
2022-09-26T00:26:08.816Z,21.12
2022-09-26T00:28:35.241Z,21.14
2022-09-26T00:31:06.428Z,21.11
2022-09-26T00:33:33.450Z,21.09
2022-09-26T00:36:00.186Z,21.08
2022-09-26T00:38:26.732Z,21.08
2022-09-26T00:40:53.763Z,21.11
2022-09-26T00:43:56.952Z,21.08
2022-09-26T00:46:35.131Z,21.11
2022-09-26T00:49:26.359Z,21.09
2022-09-26T00:52:07.317Z,21.10
2022-09-26T00:54:35.948Z,21.08
2022-09-26T00:57:10.509Z,21.09
2022-09-26T00:59:44.599Z,21.07
2022-09-26T01:02:11.508Z,21.08
2022-09-26T01:04:40.548Z,21.07
2022-09-26T01:07:12.494Z,21.07
2022-09-26T01:09:39.478Z,21.06
2022-09-26T01:12:08.796Z,21.06
2022-09-26T01:14:37.715Z,21.05
2022-09-26T01:17:05.094Z,21.05
2022-09-26T01:19:57.571Z,21.07
2022-09-26T01:23:00.958Z,21.05
2022-09-26T01:25:48.907Z,21.06
2022-09-26T01:28:33.447Z,21.04
2022-09-26T01:31:23.487Z,21.02
2022-09-26T01:34:08.477Z,21.02
2022-09-26T01:36:58.635Z,21.02
2022-09-26T01:39:41.218Z,21.01
2022-09-26T01:42:25.701Z,21.01
2022-09-26T01:45:01.145Z,21.03
2022-09-26T01:47:39.591Z,21.02
2022-09-26T01:50:22.328Z,21.02
2022-09-26T01:52:58.923Z,21.00
2022-09-26T01:55:38.582Z,21.00
2022-09-26T01:58:20.857Z,20.98
2022-09-26T02:00:49.435Z,21.01
2022-09-26T02:03:22.129Z,21.00
2022-09-26T02:05:53.167Z,21.00
2022-09-26T02:08:30.749Z,20.99
2022-09-26T02:11:04.704Z,21.00
2022-09-26T02:13:46.562Z,21.00
2022-09-26T02:16:21.493Z,21.00
2022-09-26T02:19:16.538Z,20.97
2022-09-26T02:21:44.103Z,21.00
2022-09-26T02:24:10.566Z,20.99
2022-09-26T02:26:37.167Z,21.00
2022-09-26T02:29:04.490Z,20.96
2022-09-26T02:31:36.467Z,20.99
2022-09-26T02:34:04.124Z,21.01
2022-09-26T02:36:34.481Z,20.97
2022-09-26T02:39:01.663Z,20.97
2022-09-26T02:41:50.558Z,20.95
2022-09-26T02:44:33.631Z,20.94
2022-09-26T02:47:21.725Z,20.96
2022-09-26T02:50:25.887Z,20.94
2022-09-26T02:53:13.566Z,20.95
2022-09-26T02:56:07.425Z,20.93
2022-09-26T02:58:47.357Z,20.92
2022-09-26T03:01:17.809Z,20.92
2022-09-26T03:03:51.763Z,20.92
2022-09-26T03:06:23.181Z,20.93
2022-09-26T03:08:51.207Z,20.94
2022-09-26T03:11:21.887Z,20.91
2022-09-26T03:13:52.232Z,20.94
2022-09-26T03:16:20.815Z,20.93
2022-09-26T03:18:54.044Z,20.94
2022-09-26T03:21:21.491Z,20.93
2022-09-26T03:23:48.571Z,20.93
2022-09-26T03:26:19.821Z,20.93
2022-09-26T03:28:46.269Z,20.92
2022-09-26T03:31:12.780Z,20.91
2022-09-26T03:33:39.362Z,20.90
2022-09-26T03:36:09.545Z,20.91
2022-09-26T03:38:36.171Z,20.92
2022-09-26T03:41:02.798Z,20.92
2022-09-26T03:43:29.992Z,20.90
2022-09-26T03:45:56.497Z,20.90
2022-09-26T03:48:23.288Z,20.90
2022-09-26T03:50:49.711Z,20.90
2022-09-26T03:53:16.122Z,20.90
2022-09-26T03:55:42.515Z,20.89
2022-09-26T03:58:08.908Z,20.89
2022-09-26T04:00:35.428Z,20.89
2022-09-26T04:03:05.800Z,20.89
2022-09-26T04:05:32.316Z,20.88
2022-09-26T04:07:59.919Z,20.88
2022-09-26T04:10:27.776Z,20.88
2022-09-26T04:12:54.190Z,20.89
2022-09-26T04:15:20.622Z,20.87
2022-09-26T04:17:47.023Z,20.89
2022-09-26T04:20:13.480Z,20.87
2022-09-26T04:22:42.252Z,20.89
2022-09-26T04:25:10.241Z,20.89
2022-09-26T04:27:36.722Z,20.87
2022-09-26T04:30:03.976Z,20.87
2022-09-26T04:32:30.455Z,20.90
2022-09-26T04:34:56.842Z,20.86
2022-09-26T04:37:23.537Z,20.87
2022-09-26T04:39:49.930Z,20.86
2022-09-26T04:42:16.360Z,20.84
2022-09-26T04:44:43.808Z,20.83
2022-09-26T04:47:11.332Z,20.85
2022-09-26T04:49:37.761Z,20.85
2022-09-26T04:52:04.503Z,20.85
2022-09-26T04:54:30.974Z,20.83
2022-09-26T04:56:59.980Z,20.85
2022-09-26T04:59:26.344Z,20.84
2022-09-26T05:01:53.010Z,20.85
2022-09-26T05:04:22.797Z,20.83
2022-09-26T05:06:51.802Z,20.84
2022-09-26T05:09:18.214Z,20.83
2022-09-26T05:11:44.655Z,20.85
2022-09-26T05:14:11.210Z,20.84
2022-09-26T05:16:38.878Z,20.84
2022-09-26T05:19:05.676Z,20.83
2022-09-26T05:21:32.091Z,20.82
2022-09-26T05:24:17.020Z,20.82
2022-09-26T05:26:47.654Z,20.82
2022-09-26T05:29:14.486Z,20.82
2022-09-26T05:31:41.068Z,20.82
2022-09-26T05:34:18.487Z,20.84
2022-09-26T05:36:46.064Z,20.82
2022-09-26T05:39:30.863Z,20.82
2022-09-26T05:41:58.975Z,20.81
2022-09-26T05:44:25.784Z,20.82
2022-09-26T05:46:52.458Z,20.81
2022-09-26T05:49:18.919Z,20.81
2022-09-26T05:51:46.511Z,20.79
2022-09-26T05:54:15.540Z,20.80
2022-09-26T05:56:42.212Z,20.80
2022-09-26T05:59:09.007Z,20.79
2022-09-26T06:01:35.831Z,20.80
2022-09-26T06:04:02.968Z,20.79
2022-09-26T06:06:32.719Z,20.80
2022-09-26T06:08:59.996Z,20.80
2022-09-26T06:11:30.618Z,20.78
2022-09-26T06:13:59.332Z,20.77
2022-09-26T06:16:26.783Z,20.78
2022-09-26T06:18:55.516Z,20.79
2022-09-26T06:21:22.485Z,20.78
2022-09-26T06:23:49.037Z,20.79
2022-09-26T06:26:20.154Z,20.78
2022-09-26T06:28:47.155Z,20.79
2022-09-26T06:31:16.898Z,20.79
2022-09-26T06:33:43.789Z,20.77
2022-09-26T06:36:11.665Z,20.76
2022-09-26T06:38:38.591Z,20.78
2022-09-26T06:41:07.355Z,20.78
2022-09-26T06:43:34.023Z,20.80
2022-09-26T06:46:00.655Z,20.78
2022-09-26T06:48:27.170Z,20.80
2022-09-26T06:50:55.660Z,20.80
2022-09-26T06:53:22.256Z,20.78
2022-09-26T06:55:49.506Z,20.81
2022-09-26T06:58:15.945Z,20.82
2022-09-26T07:00:42.710Z,20.84
2022-09-26T07:03:09.286Z,20.83
2022-09-26T07:05:35.970Z,20.83
2022-09-26T07:08:02.856Z,20.85
2022-09-26T07:10:30.462Z,20.86
2022-09-26T07:13:06.274Z,20.85
2022-09-26T07:15:34.781Z,20.87
2022-09-26T07:18:03.601Z,20.88
2022-09-26T07:20:33.224Z,20.91
2022-09-26T07:23:09.640Z,20.90
2022-09-26T07:25:38.750Z,20.92
2022-09-26T07:28:07.173Z,20.94
2022-09-26T07:30:34.193Z,20.94
2022-09-26T07:33:03.195Z,20.95
2022-09-26T07:35:31.414Z,20.95
2022-09-26T07:37:59.056Z,20.98
2022-09-26T07:40:26.711Z,20.99
2022-09-26T07:43:15.424Z,20.97
2022-09-26T07:45:58.381Z,20.99
2022-09-26T07:48:43.666Z,20.99
2022-09-26T07:51:11.752Z,20.97
2022-09-26T07:53:41.088Z,20.98
2022-09-26T07:56:12.176Z,20.98
2022-09-26T07:58:43.202Z,20.96
2022-09-26T08:01:12.932Z,20.95
2022-09-26T08:03:40.671Z,20.96
2022-09-26T08:06:07.593Z,20.95
2022-09-26T08:08:35.159Z,20.96
2022-09-26T08:11:04.218Z,20.96
2022-09-26T08:13:32.476Z,20.96
2022-09-26T08:16:04.383Z,20.96
2022-09-26T08:18:31.178Z,20.94
2022-09-26T08:20:57.682Z,20.95
2022-09-26T08:23:24.132Z,20.96
2022-09-26T08:25:50.570Z,20.95
2022-09-26T08:28:17.318Z,20.97
2022-09-26T08:30:44.974Z,20.96
2022-09-26T08:33:12.531Z,20.96
2022-09-26T08:35:39.187Z,20.98
2022-09-26T08:38:09.282Z,20.97
2022-09-26T08:40:49.793Z,20.97
2022-09-26T08:43:41.508Z,20.96
2022-09-26T08:46:32.838Z,20.96
2022-09-26T08:49:31.494Z,20.95
2022-09-26T08:52:03.881Z,21.01
2022-09-26T08:54:38.759Z,21.01
2022-09-26T08:57:17.318Z,21.03
2022-09-26T08:59:46.746Z,21.05
2022-09-26T09:02:25.647Z,21.06
2022-09-26T09:05:05.493Z,21.09
2022-09-26T09:07:32.125Z,21.11
2022-09-26T09:10:07.798Z,21.12
2022-09-26T09:12:49.987Z,21.12
2022-09-26T09:15:31.733Z,21.14
2022-09-26T09:18:24.316Z,21.15
2022-09-26T09:21:01.630Z,21.19
2022-09-26T09:23:49.447Z,21.19
2022-09-26T09:29:32.767Z,21.20
2022-09-26T09:32:01.581Z,21.21
2022-09-26T09:34:32.661Z,21.21
2022-09-26T09:37:05.482Z,21.20
2022-09-26T09:39:38.100Z,21.20
2022-09-26T09:42:20.881Z,21.20
2022-09-26T09:44:52.586Z,21.22
2022-09-26T09:47:19.294Z,21.21
2022-09-26T09:49:48.133Z,21.25
2022-09-26T09:52:40.712Z,21.25
2022-09-26T09:55:22.295Z,21.28
2022-09-26T09:58:07.217Z,21.33
2022-09-26T10:00:41.581Z,21.37
2022-09-26T10:03:11.301Z,21.40
2022-09-26T10:05:46.927Z,21.43
2022-09-26T10:08:27.038Z,21.45
2022-09-26T10:11:09.223Z,21.45
2022-09-26T10:13:36.942Z,21.44
2022-09-26T10:16:08.091Z,21.46
2022-09-26T10:19:00.897Z,21.47
2022-09-26T10:21:42.187Z,21.46
2022-09-26T10:24:40.951Z,21.48
2022-09-26T10:27:22.653Z,21.48
2022-09-26T10:30:00.239Z,21.48
2022-09-26T10:32:30.350Z,21.48
2022-09-26T10:35:19.666Z,21.48
2022-09-26T10:37:59.414Z,21.47
2022-09-26T10:40:46.257Z,21.48
2022-09-26T10:43:31.732Z,21.47
2022-09-26T10:46:20.786Z,21.45
2022-09-26T10:48:55.266Z,21.46
2022-09-26T10:51:47.606Z,21.43
2022-09-26T10:54:18.812Z,21.42
2022-09-26T10:56:56.811Z,21.42
2022-09-26T10:59:31.459Z,21.42
2022-09-26T11:01:59.397Z,21.40
2022-09-26T11:04:47.559Z,21.39
2022-09-26T11:07:30.099Z,21.39
2022-09-26T11:10:02.035Z,21.38
2022-09-26T11:12:30.777Z,21.38
2022-09-26T11:15:12.754Z,21.38
2022-09-26T11:17:51.096Z,21.39
2022-09-26T11:20:23.831Z,21.39
2022-09-26T11:23:37.317Z,21.38
2022-09-26T11:26:33.943Z,21.39
2022-09-26T11:34:53.094Z,21.40
2022-09-26T11:41:01.069Z,21.36
2022-09-26T11:43:45.133Z,21.35
2022-09-26T11:46:31.331Z,21.33
2022-09-26T11:49:11.128Z,21.31
2022-09-26T11:51:37.517Z,21.35
2022-09-26T11:55:04.049Z,21.33
2022-09-26T11:58:06.451Z,21.33
2022-09-26T12:00:59.829Z,21.31
2022-09-26T12:03:36.042Z,21.32
2022-09-26T12:06:05.314Z,21.32
2022-09-26T12:09:09.494Z,21.30
2022-09-26T12:11:42.383Z,21.32
2022-09-26T12:14:11.518Z,21.31
2022-09-26T12:16:55.529Z,21.29
2022-09-26T12:19:28.020Z,21.31
2022-09-26T12:22:28.297Z,21.31
2022-09-26T12:25:11.251Z,21.27
2022-09-26T12:27:50.438Z,21.28
2022-09-26T12:30:21.863Z,21.28
2022-09-26T12:33:13.094Z,21.26
2022-09-26T12:36:09.404Z,21.27
2022-09-26T12:39:03.963Z,21.26
2022-09-26T12:41:53.332Z,21.25
2022-09-26T12:44:32.612Z,21.26
2022-09-26T12:47:22.081Z,21.25
2022-09-26T12:50:08.248Z,21.25
2022-09-26T12:52:56.686Z,21.26
2022-09-26T12:55:49.131Z,21.27
2022-09-26T12:58:29.133Z,21.25
2022-09-26T13:01:17.297Z,21.25
2022-09-26T13:04:19.231Z,21.24
2022-09-26T13:07:14.724Z,21.25
2022-09-26T13:09:57.110Z,21.25
2022-09-26T13:13:02.492Z,21.25
2022-09-26T13:15:36.698Z,21.24
2022-09-26T13:18:10.690Z,21.23
2022-09-26T13:20:43.367Z,21.23
2022-09-26T13:23:42.050Z,21.23
2022-09-26T13:26:17.971Z,21.22
2022-09-26T13:29:16.693Z,21.21
2022-09-26T13:31:55.258Z,21.21
2022-09-26T13:34:34.840Z,21.21
2022-09-26T13:37:04.970Z,21.20
2022-09-26T13:39:42.397Z,21.19
2022-09-26T13:42:44.110Z,21.19
2022-09-26T13:45:30.242Z,21.20
2022-09-26T13:48:10.185Z,21.18
2022-09-26T13:50:54.727Z,21.18
2022-09-26T13:53:38.200Z,21.19
2022-09-26T13:56:36.204Z,21.17
2022-09-26T13:59:32.300Z,21.15
2022-09-26T14:02:24.565Z,21.16
2022-09-26T14:04:53.412Z,21.17
2022-09-26T14:08:01.218Z,21.14
2022-09-26T14:10:29.095Z,21.16
2022-09-26T14:13:10.598Z,21.15
2022-09-26T14:15:49.359Z,21.15
2022-09-26T14:18:38.553Z,21.13
2022-09-26T14:21:24.825Z,21.11
2022-09-26T14:24:20.121Z,21.11
2022-09-26T14:26:58.806Z,21.10
2022-09-26T14:29:35.409Z,21.10
2022-09-26T14:32:06.105Z,21.10
2022-09-26T14:35:28.226Z,21.09
2022-09-26T14:38:09.728Z,21.10
2022-09-26T14:40:50.901Z,21.07
2022-09-26T14:43:19.085Z,21.08
2022-09-26T14:46:13.958Z,21.08
2022-09-26T14:48:42.617Z,21.06
2022-09-26T14:51:16.024Z,21.07
2022-09-26T14:53:48.633Z,21.05
2022-09-26T14:56:16.426Z,21.07
2022-09-26T14:58:42.917Z,21.06
2022-09-26T15:01:31.692Z,21.06
2022-09-26T15:04:03.663Z,21.07
2022-09-26T15:06:38.643Z,21.05
2022-09-26T15:09:17.874Z,21.04
2022-09-26T15:11:58.578Z,21.06
2022-09-26T15:14:35.416Z,21.06
2022-09-26T15:17:02.286Z,21.04
2022-09-26T15:19:35.548Z,21.03
2022-09-26T15:22:13.471Z,21.03
2022-09-26T15:24:40.065Z,21.04
2022-09-26T15:27:37.201Z,21.02
2022-09-26T15:30:14.201Z,21.05
2022-09-26T15:32:40.695Z,21.03
2022-09-26T15:35:12.860Z,21.05
2022-09-26T15:37:39.755Z,21.05
2022-09-26T15:40:25.594Z,21.04
2022-09-26T15:43:10.558Z,21.04
2022-09-26T15:45:46.418Z,21.03
2022-09-26T15:48:24.791Z,21.06
2022-09-26T15:51:00.303Z,21.02
2022-09-26T15:53:36.411Z,21.03
2022-09-26T15:56:05.868Z,21.03
2022-09-26T15:58:47.008Z,21.02
2022-09-26T16:01:19.106Z,21.02
2022-09-26T16:04:16.497Z,21.03
2022-09-26T16:06:53.737Z,21.01
2022-09-26T16:09:31.421Z,21.02
2022-09-26T16:12:01.272Z,21.01
2022-09-26T16:14:40.284Z,21.00
2022-09-26T16:17:19.052Z,21.01
2022-09-26T16:19:47.326Z,21.00
2022-09-26T16:22:51.765Z,21.01
2022-09-26T16:25:18.517Z,21.02
2022-09-26T16:27:50.108Z,21.00
2022-09-26T16:30:25.632Z,21.00
2022-09-26T16:32:52.908Z,21.00
2022-09-26T16:35:29.516Z,21.01
2022-09-26T16:38:00.625Z,21.01
2022-09-26T16:40:29.073Z,21.03
2022-09-26T16:43:14.684Z,21.00
2022-09-26T16:45:49.296Z,21.01
2022-09-26T16:48:49.984Z,21.00
2022-09-26T16:51:24.178Z,21.00
2022-09-26T16:54:01.331Z,20.96
2022-09-26T16:56:28.408Z,20.96
2022-09-26T16:59:03.695Z,20.95
2022-09-26T17:01:48.904Z,20.96
2022-09-26T17:04:22.164Z,20.95
2022-09-26T17:06:48.674Z,20.96
2022-09-26T17:09:20.142Z,20.98
2022-09-26T17:11:48.951Z,20.95
2022-09-26T17:14:19.229Z,20.97
2022-09-26T17:16:50.670Z,20.96
2022-09-26T17:19:18.086Z,20.95
2022-09-26T17:21:46.483Z,20.96
2022-09-26T17:24:15.347Z,20.94
2022-09-26T17:26:49.397Z,20.97
2022-09-26T17:29:21.251Z,20.96
2022-09-26T17:31:47.928Z,20.95
2022-09-26T17:34:14.877Z,20.96
2022-09-26T17:36:47.353Z,20.94
2022-09-26T17:39:15.951Z,20.93
2022-09-26T17:41:43.300Z,20.94
2022-09-26T17:44:09.874Z,20.94
2022-09-26T17:46:38.333Z,20.96
2022-09-26T17:49:13.757Z,20.94
2022-09-26T17:51:40.696Z,20.94
2022-09-26T17:54:15.100Z,20.92
2022-09-26T17:56:41.957Z,20.93
2022-09-26T17:59:22.882Z,20.92
2022-09-26T18:02:00.559Z,20.93
2022-09-26T18:04:29.149Z,20.92
2022-09-26T18:07:04.289Z,20.91
2022-09-26T18:09:35.571Z,20.90
2022-09-26T18:12:04.073Z,20.92
2022-09-26T18:14:33.463Z,20.93
2022-09-26T18:17:01.314Z,20.91
2022-09-26T18:19:28.417Z,20.92
2022-09-26T18:21:55.925Z,20.92
2022-09-26T18:24:27.449Z,20.93
2022-09-26T18:26:57.060Z,20.95
2022-09-26T18:29:32.101Z,20.93
2022-09-26T18:31:59.802Z,20.94
2022-09-26T18:34:26.261Z,20.94
2022-09-26T18:36:57.178Z,20.92
2022-09-26T18:39:24.940Z,20.92
2022-09-26T18:41:58.220Z,20.93
2022-09-26T18:44:24.999Z,20.93
2022-09-26T18:46:52.054Z,20.91
2022-09-26T18:49:18.577Z,20.93
2022-09-26T18:51:45.945Z,20.93
2022-09-26T18:54:17.348Z,20.92
2022-09-26T18:57:02.756Z,20.93
2022-09-26T18:59:32.156Z,20.95
2022-09-26T19:02:01.440Z,20.94
2022-09-26T19:04:30.642Z,20.92
2022-09-26T19:07:01.733Z,20.91
2022-09-26T19:09:32.753Z,20.91
2022-09-26T19:11:59.476Z,20.93
2022-09-26T19:14:30.578Z,20.92
2022-09-26T19:16:58.033Z,20.93
2022-09-26T19:19:25.631Z,20.92
2022-09-26T19:21:56.926Z,20.91
2022-09-26T19:24:33.551Z,20.92
2022-09-26T19:27:18.289Z,20.91
2022-09-26T19:29:54.790Z,20.92
2022-09-26T19:32:38.608Z,20.92
2022-09-26T19:35:21.037Z,20.92
2022-09-26T19:37:48.819Z,20.91
2022-09-26T19:40:17.262Z,20.93
2022-09-26T19:42:43.943Z,20.91
2022-09-26T19:45:12.485Z,20.91
2022-09-26T19:47:42.906Z,20.91
2022-09-26T19:50:18.364Z,20.91
2022-09-26T19:52:44.897Z,20.91
2022-09-26T19:55:16.611Z,20.91
2022-09-26T19:57:43.306Z,20.90
2022-09-26T20:00:13.714Z,20.90
2022-09-26T20:02:40.661Z,20.91
2022-09-26T20:05:19.163Z,20.91
2022-09-26T20:07:46.237Z,20.90
2022-09-26T20:10:15.812Z,20.89
2022-09-26T20:12:43.252Z,20.90
2022-09-26T20:15:12.197Z,20.92
2022-09-26T20:17:41.451Z,20.90
2022-09-26T20:20:15.213Z,20.90
2022-09-26T20:22:43.126Z,20.92
2022-09-26T20:25:15.669Z,20.90
2022-09-26T20:27:42.223Z,20.88
2022-09-26T20:30:35.400Z,20.88
2022-09-26T20:33:02.777Z,20.91
2022-09-26T20:35:35.269Z,20.89
2022-09-26T20:38:07.227Z,20.89
2022-09-26T20:40:34.956Z,20.92
2022-09-26T20:43:10.304Z,20.89
2022-09-26T20:45:40.569Z,20.88
2022-09-26T20:48:13.183Z,20.88
2022-09-26T20:50:39.898Z,20.87
2022-09-26T20:53:17.590Z,20.90
2022-09-26T20:55:44.894Z,20.90
2022-09-26T20:58:11.386Z,20.89
2022-09-26T21:00:38.879Z,20.89
2022-09-26T21:03:05.888Z,20.90
2022-09-26T21:05:33.785Z,20.88
2022-09-26T21:08:00.906Z,20.87
2022-09-26T21:10:29.997Z,20.87
2022-09-26T21:12:57.087Z,20.88
2022-09-26T21:15:26.860Z,20.87
2022-09-26T21:17:54.364Z,20.89
2022-09-26T21:20:25.660Z,20.88
2022-09-26T21:22:53.272Z,20.88
2022-09-26T21:25:22.358Z,20.89
2022-09-26T21:27:56.233Z,20.88
2022-09-26T21:30:22.937Z,20.88
2022-09-26T21:32:56.175Z,20.88
2022-09-26T21:35:31.901Z,20.86
2022-09-26T21:38:00.280Z,20.87
2022-09-26T21:40:31.763Z,20.87
2022-09-26T21:43:13.442Z,20.86
2022-09-26T21:45:43.054Z,20.87
2022-09-26T21:48:11.220Z,20.85
2022-09-26T21:50:41.811Z,20.86
2022-09-26T21:53:19.939Z,20.85
2022-09-26T21:55:52.361Z,20.87
2022-09-26T21:58:25.916Z,20.88
2022-09-26T22:00:52.578Z,20.86
2022-09-26T22:03:19.248Z,20.85
2022-09-26T22:05:45.663Z,20.85
2022-09-26T22:08:12.183Z,20.85
2022-09-26T22:10:38.603Z,20.86
2022-09-26T22:13:05.108Z,20.88
2022-09-26T22:15:31.616Z,20.85
2022-09-26T22:17:58.077Z,20.85
2022-09-26T22:20:24.595Z,20.85
2022-09-26T22:22:51.082Z,20.86
2022-09-26T22:25:17.741Z,20.86
2022-09-26T22:27:44.182Z,20.85
2022-09-26T22:30:11.271Z,20.85
2022-09-26T22:32:37.706Z,20.86
2022-09-26T22:35:04.828Z,20.85
2022-09-26T22:37:31.266Z,20.85
2022-09-26T22:39:58.662Z,20.87
2022-09-26T22:42:25.218Z,20.87
2022-09-26T22:44:51.650Z,20.86
2022-09-26T22:47:18.104Z,20.86
2022-09-26T22:49:44.681Z,20.88
2022-09-26T22:52:11.247Z,20.86
2022-09-26T22:54:37.707Z,20.86
2022-09-26T22:57:04.344Z,20.86
2022-09-26T22:59:30.851Z,20.85
2022-09-26T23:01:57.303Z,20.83
2022-09-26T23:04:24.123Z,20.84
2022-09-26T23:06:50.577Z,20.85
2022-09-26T23:09:17.047Z,20.85
2022-09-26T23:11:43.470Z,20.85
2022-09-26T23:14:09.911Z,20.84
2022-09-26T23:16:36.439Z,20.86
2022-09-26T23:19:03.268Z,20.87
2022-09-26T23:21:29.716Z,20.84
2022-09-26T23:23:58.218Z,20.86
2022-09-26T23:26:30.168Z,20.84
2022-09-26T23:28:58.024Z,20.85
2022-09-26T23:31:26.514Z,20.84
2022-09-26T23:33:53.563Z,20.84
2022-09-26T23:36:20.350Z,20.83
2022-09-26T23:38:46.766Z,20.83
2022-09-26T23:41:13.944Z,20.82
2022-09-26T23:43:40.778Z,20.84
2022-09-26T23:46:07.615Z,20.81
2022-09-26T23:48:34.628Z,20.79
2022-09-26T23:51:01.435Z,20.81
2022-09-26T23:53:28.221Z,20.80
2022-09-26T23:56:03.512Z,20.81
2022-09-26T23:58:30.102Z,20.80
